Terminal Aerodrome Forecast
Issued by NWS Oklahoma City, OK

Home | Current Version | Previous Version | Text Only | Print | Product List | Glossary On
Versions: 1 2 3 4 5 6 7 8 9 10 11 12 13 14 15 16 17 18 19 20 21 22 23
000
FTUS44 KOUN 251725
TAFOUN
TAF
KOUN 251725Z 2518/2618 20016G26KT P6SM SCT250
     FM260100 01012KT P6SM VCTS BKN050CB
      TEMPO 2602/2605 4SM TSRA BKN035CB
     FM260600 36019KT P6SM BKN015=

USA.gov is the U.S. government's official web portal to all federal, state and local government web resources and services.